sensor_id;sensor_type;location;lat;lon;timestamp;P1;durP1;ratioP1;P2;durP2;ratioP2
46729;SDS011;32476;50.002;11.854;2023-07-02T00:02:13;7.53;;;4.90;;
46729;SDS011;32476;50.002;11.854;2023-07-02T00:04:42;8.70;;;3.97;;
46729;SDS011;32476;50.002;11.854;2023-07-02T00:07:08;6.17;;;4.40;;
46729;SDS011;32476;50.002;11.854;2023-07-02T00:09:34;5.23;;;4.40;;
46729;SDS011;32476;50.002;11.854;2023-07-02T00:12:02;6.50;;;5.47;;
46729;SDS011;32476;50.002;11.854;2023-07-02T00:14:28;5.67;;;5.07;;
46729;SDS011;32476;50.002;11.854;2023-07-02T00:16:54;6.47;;;5.10;;
46729;SDS011;32476;50.002;11.854;2023-07-02T00:19:21;5.57;;;5.03;;
46729;SDS011;32476;50.002;11.854;2023-07-02T00:21:47;5.60;;;4.87;;
46729;SDS011;32476;50.002;11.854;2023-07-02T00:24:13;7.13;;;5.17;;
46729;SDS011;32476;50.002;11.854;2023-07-02T00:26:42;5.53;;;4.70;;
46729;SDS011;32476;50.002;11.854;2023-07-02T00:29:08;5.83;;;4.83;;
46729;SDS011;32476;50.002;11.854;2023-07-02T00:31:34;5.73;;;5.13;;
46729;SDS011;32476;50.002;11.854;2023-07-02T00:34:02;5.70;;;4.73;;
46729;SDS011;32476;50.002;11.854;2023-07-02T00:36:29;8.33;;;5.37;;
46729;SDS011;32476;50.002;11.854;2023-07-02T00:38:56;6.80;;;4.80;;
46729;SDS011;32476;50.002;11.854;2023-07-02T00:41:25;6.03;;;5.40;;
46729;SDS011;32476;50.002;11.854;2023-07-02T00:43:51;7.87;;;6.00;;
46729;SDS011;32476;50.002;11.854;2023-07-02T00:46:20;7.30;;;5.97;;
46729;SDS011;32476;50.002;11.854;2023-07-02T00:48:49;7.30;;;6.03;;
46729;SDS011;32476;50.002;11.854;2023-07-02T00:51:18;5.57;;;5.07;;
46729;SDS011;32476;50.002;11.854;2023-07-02T00:53:53;4.67;;;3.37;;
46729;SDS011;32476;50.002;11.854;2023-07-02T00:56:21;5.60;;;3.90;;
46729;SDS011;32476;50.002;11.854;2023-07-02T00:58:50;3.63;;;3.33;;
46729;SDS011;32476;50.002;11.854;2023-07-02T01:01:21;4.80;;;3.07;;
46729;SDS011;32476;50.002;11.854;2023-07-02T01:06:26;2.83;;;2.63;;
46729;SDS011;32476;50.002;11.854;2023-07-02T01:09:02;3.83;;;3.43;;
46729;SDS011;32476;50.002;11.854;2023-07-02T01:11:38;4.70;;;3.93;;
46729;SDS011;32476;50.002;11.854;2023-07-02T01:14:08;6.13;;;5.40;;
46729;SDS011;32476;50.002;11.854;2023-07-02T01:16:36;5.50;;;5.00;;
46729;SDS011;32476;50.002;11.854;2023-07-02T01:19:05;6.53;;;5.87;;
46729;SDS011;32476;50.002;11.854;2023-07-02T01:21:49;7.47;;;5.73;;
46729;SDS011;32476;50.002;11.854;2023-07-02T01:24:16;7.63;;;6.90;;
46729;SDS011;32476;50.002;11.854;2023-07-02T01:26:42;7.20;;;6.30;;
46729;SDS011;32476;50.002;11.854;2023-07-02T01:29:13;9.07;;;6.30;;
46729;SDS011;32476;50.002;11.854;2023-07-02T01:31:43;6.53;;;5.93;;
46729;SDS011;32476;50.002;11.854;2023-07-02T01:34:11;9.17;;;7.27;;
46729;SDS011;32476;50.002;11.854;2023-07-02T01:36:38;7.43;;;6.63;;
46729;SDS011;32476;50.002;11.854;2023-07-02T01:39:04;9.00;;;7.13;;
46729;SDS011;32476;50.002;11.854;2023-07-02T01:42:33;8.30;;;7.47;;
46729;SDS011;32476;50.002;11.854;2023-07-02T01:44:35;9.23;;;7.80;;
46729;SDS011;32476;50.002;11.854;2023-07-02T01:47:03;11.03;;;8.70;;
46729;SDS011;32476;50.002;11.854;2023-07-02T01:49:30;10.30;;;8.93;;
46729;SDS011;32476;50.002;11.854;2023-07-02T01:51:56;9.47;;;8.57;;
46729;SDS011;32476;50.002;11.854;2023-07-02T01:54:24;8.83;;;7.53;;
46729;SDS011;32476;50.002;11.854;2023-07-02T01:56:55;10.07;;;7.03;;
46729;SDS011;32476;50.002;11.854;2023-07-02T01:59:21;7.93;;;7.20;;
46729;SDS011;32476;50.002;11.854;2023-07-02T02:01:49;8.03;;;6.33;;
46729;SDS011;32476;50.002;11.854;2023-07-02T02:04:15;7.97;;;6.60;;
46729;SDS011;32476;50.002;11.854;2023-07-02T02:06:41;8.63;;;7.07;;
46729;SDS011;32476;50.002;11.854;2023-07-02T02:09:09;7.53;;;6.73;;
46729;SDS011;32476;50.002;11.854;2023-07-02T02:11:38;7.73;;;6.93;;
46729;SDS011;32476;50.002;11.854;2023-07-02T02:14:08;7.00;;;6.30;;
46729;SDS011;32476;50.002;11.854;2023-07-02T02:16:35;8.27;;;6.40;;
46729;SDS011;32476;50.002;11.854;2023-07-02T02:19:01;8.07;;;6.70;;
46729;SDS011;32476;50.002;11.854;2023-07-02T02:21:29;6.90;;;6.30;;
46729;SDS011;32476;50.002;11.854;2023-07-02T02:23:55;8.10;;;6.27;;
46729;SDS011;32476;50.002;11.854;2023-07-02T02:26:21;7.10;;;6.40;;
46729;SDS011;32476;50.002;11.854;2023-07-02T02:28:49;9.27;;;6.50;;
46729;SDS011;32476;50.002;11.854;2023-07-02T02:31:15;6.47;;;5.53;;
46729;SDS011;32476;50.002;11.854;2023-07-02T02:33:41;7.03;;;6.13;;
46729;SDS011;32476;50.002;11.854;2023-07-02T02:36:09;7.20;;;6.03;;
46729;SDS011;32476;50.002;11.854;2023-07-02T02:38:35;7.17;;;6.30;;
46729;SDS011;32476;50.002;11.854;2023-07-02T02:41:03;7.17;;;6.47;;
46729;SDS011;32476;50.002;11.854;2023-07-02T02:43:30;8.00;;;6.50;;
46729;SDS011;32476;50.002;11.854;2023-07-02T02:45:56;7.00;;;6.30;;
46729;SDS011;32476;50.002;11.854;2023-07-02T02:48:22;7.47;;;5.90;;
46729;SDS011;32476;50.002;11.854;2023-07-02T02:50:50;7.80;;;6.00;;
46729;SDS011;32476;50.002;11.854;2023-07-02T02:53:16;6.87;;;6.00;;
46729;SDS011;32476;50.002;11.854;2023-07-02T02:55:42;8.00;;;5.80;;
46729;SDS011;32476;50.002;11.854;2023-07-02T02:58:09;8.73;;;6.50;;
46729;SDS011;32476;50.002;11.854;2023-07-02T03:00:35;7.03;;;6.17;;
46729;SDS011;32476;50.002;11.854;2023-07-02T03:03:01;6.60;;;5.87;;
46729;SDS011;32476;50.002;11.854;2023-07-02T03:05:29;7.20;;;5.67;;
46729;SDS011;32476;50.002;11.854;2023-07-02T03:07:56;6.27;;;5.67;;
46729;SDS011;32476;50.002;11.854;2023-07-02T03:10:21;8.63;;;5.93;;
46729;SDS011;32476;50.002;11.854;2023-07-02T03:12:49;8.20;;;6.07;;
46729;SDS011;32476;50.002;11.854;2023-07-02T03:15:15;7.13;;;5.97;;
46729;SDS011;32476;50.002;11.854;2023-07-02T03:17:42;8.83;;;6.20;;
46729;SDS011;32476;50.002;11.854;2023-07-02T03:20:10;7.00;;;6.20;;
46729;SDS011;32476;50.002;11.854;2023-07-02T03:22:36;7.10;;;6.40;;
46729;SDS011;32476;50.002;11.854;2023-07-02T03:25:03;9.87;;;6.57;;
46729;SDS011;32476;50.002;11.854;2023-07-02T03:27:31;8.03;;;6.67;;
46729;SDS011;32476;50.002;11.854;2023-07-02T03:29:56;8.40;;;6.67;;
46729;SDS011;32476;50.002;11.854;2023-07-02T03:32:23;7.07;;;6.30;;
46729;SDS011;32476;50.002;11.854;2023-07-02T03:34:51;10.80;;;7.57;;
46729;SDS011;32476;50.002;11.854;2023-07-02T03:37:17;10.33;;;6.80;;
46729;SDS011;32476;50.002;11.854;2023-07-02T03:39:43;8.83;;;6.47;;
46729;SDS011;32476;50.002;11.854;2023-07-02T03:42:11;9.17;;;7.20;;
46729;SDS011;32476;50.002;11.854;2023-07-02T03:44:36;9.50;;;7.50;;
46729;SDS011;32476;50.002;11.854;2023-07-02T03:47:02;7.93;;;7.03;;
46729;SDS011;32476;50.002;11.854;2023-07-02T03:49:30;7.90;;;7.10;;
46729;SDS011;32476;50.002;11.854;2023-07-02T03:51:56;7.63;;;6.83;;
46729;SDS011;32476;50.002;11.854;2023-07-02T03:54:22;9.77;;;6.20;;
46729;SDS011;32476;50.002;11.854;2023-07-02T03:56:49;9.07;;;6.43;;
46729;SDS011;32476;50.002;11.854;2023-07-02T03:59:15;8.10;;;6.90;;
46729;SDS011;32476;50.002;11.854;2023-07-02T04:01:41;11.23;;;7.03;;
46729;SDS011;32476;50.002;11.854;2023-07-02T04:04:10;7.30;;;6.50;;
46729;SDS011;32476;50.002;11.854;2023-07-02T04:06:36;11.47;;;7.43;;
46729;SDS011;32476;50.002;11.854;2023-07-02T04:09:02;7.93;;;6.67;;
46729;SDS011;32476;50.002;11.854;2023-07-02T04:11:31;9.37;;;6.80;;
46729;SDS011;32476;50.002;11.854;2023-07-02T04:13:57;7.53;;;6.77;;
46729;SDS011;32476;50.002;11.854;2023-07-02T04:16:22;8.23;;;6.80;;
46729;SDS011;32476;50.002;11.854;2023-07-02T04:18:50;8.63;;;6.37;;
46729;SDS011;32476;50.002;11.854;2023-07-02T04:21:16;8.80;;;6.47;;
46729;SDS011;32476;50.002;11.854;2023-07-02T04:23:42;9.50;;;6.63;;
46729;SDS011;32476;50.002;11.854;2023-07-02T04:26:09;7.17;;;6.47;;
46729;SDS011;32476;50.002;11.854;2023-07-02T04:28:35;9.80;;;6.17;;
46729;SDS011;32476;50.002;11.854;2023-07-02T04:31:01;9.77;;;6.70;;
46729;SDS011;32476;50.002;11.854;2023-07-02T04:33:28;7.00;;;5.97;;
46729;SDS011;32476;50.002;11.854;2023-07-02T04:36:02;11.33;;;6.30;;
46729;SDS011;32476;50.002;11.854;2023-07-02T04:38:30;6.57;;;5.93;;
46729;SDS011;32476;50.002;11.854;2023-07-02T04:40:58;12.37;;;7.50;;
46729;SDS011;32476;50.002;11.854;2023-07-02T04:43:32;7.07;;;6.23;;
46729;SDS011;32476;50.002;11.854;2023-07-02T04:45:58;11.70;;;6.87;;
46729;SDS011;32476;50.002;11.854;2023-07-02T04:48:24;8.00;;;6.60;;
46729;SDS011;32476;50.002;11.854;2023-07-02T04:50:52;6.90;;;6.20;;
46729;SDS011;32476;50.002;11.854;2023-07-02T04:53:18;8.97;;;6.53;;
46729;SDS011;32476;50.002;11.854;2023-07-02T04:55:44;8.33;;;6.20;;
46729;SDS011;32476;50.002;11.854;2023-07-02T04:58:11;9.50;;;6.80;;
46729;SDS011;32476;50.002;11.854;2023-07-02T05:00:37;9.80;;;6.97;;
46729;SDS011;32476;50.002;11.854;2023-07-02T05:03:04;11.13;;;6.50;;
46729;SDS011;32476;50.002;11.854;2023-07-02T05:05:31;10.93;;;6.60;;
46729;SDS011;32476;50.002;11.854;2023-07-02T05:07:57;9.07;;;6.30;;
46729;SDS011;32476;50.002;11.854;2023-07-02T05:10:23;6.17;;;5.30;;
46729;SDS011;32476;50.002;11.854;2023-07-02T05:12:50;7.80;;;5.67;;
46729;SDS011;32476;50.002;11.854;2023-07-02T05:15:16;7.33;;;5.13;;
46729;SDS011;32476;50.002;11.854;2023-07-02T05:17:42;7.77;;;5.80;;
46729;SDS011;32476;50.002;11.854;2023-07-02T05:20:10;5.47;;;4.77;;
46729;SDS011;32476;50.002;11.854;2023-07-02T05:22:36;6.60;;;5.20;;
46729;SDS011;32476;50.002;11.854;2023-07-02T05:25:02;6.77;;;4.73;;
46729;SDS011;32476;50.002;11.854;2023-07-02T05:27:30;6.33;;;4.73;;
46729;SDS011;32476;50.002;11.854;2023-07-02T05:29:56;5.47;;;4.97;;
46729;SDS011;32476;50.002;11.854;2023-07-02T05:32:22;8.70;;;4.90;;
46729;SDS011;32476;50.002;11.854;2023-07-02T05:34:49;8.80;;;4.80;;
46729;SDS011;32476;50.002;11.854;2023-07-02T05:37:15;5.23;;;4.50;;
46729;SDS011;32476;50.002;11.854;2023-07-02T05:39:41;6.00;;;4.57;;
46729;SDS011;32476;50.002;11.854;2023-07-02T05:42:09;6.37;;;4.23;;
46729;SDS011;32476;50.002;11.854;2023-07-02T05:44:34;5.43;;;4.40;;
46729;SDS011;32476;50.002;11.854;2023-07-02T05:47:00;7.90;;;4.70;;
46729;SDS011;32476;50.002;11.854;2023-07-02T05:49:28;5.77;;;4.07;;
46729;SDS011;32476;50.002;11.854;2023-07-02T05:51:54;6.27;;;4.30;;
46729;SDS011;32476;50.002;11.854;2023-07-02T05:54:19;8.43;;;4.53;;
46729;SDS011;32476;50.002;11.854;2023-07-02T05:56:47;9.10;;;5.23;;
46729;SDS011;32476;50.002;11.854;2023-07-02T05:59:13;9.67;;;4.10;;
46729;SDS011;32476;50.002;11.854;2023-07-02T06:01:43;6.10;;;4.57;;
46729;SDS011;32476;50.002;11.854;2023-07-02T06:04:10;9.33;;;4.67;;
46729;SDS011;32476;50.002;11.854;2023-07-02T06:06:36;9.50;;;4.50;;
46729;SDS011;32476;50.002;11.854;2023-07-02T06:09:02;7.87;;;4.53;;
46729;SDS011;32476;50.002;11.854;2023-07-02T06:11:30;8.77;;;4.40;;
46729;SDS011;32476;50.002;11.854;2023-07-02T06:13:56;7.00;;;4.90;;
46729;SDS011;32476;50.002;11.854;2023-07-02T06:16:22;13.50;;;4.30;;
46729;SDS011;32476;50.002;11.854;2023-07-02T06:18:49;5.70;;;4.43;;
46729;SDS011;32476;50.002;11.854;2023-07-02T06:21:16;6.07;;;4.10;;
46729;SDS011;32476;50.002;11.854;2023-07-02T06:23:44;6.70;;;4.13;;
46729;SDS011;32476;50.002;11.854;2023-07-02T06:26:12;7.23;;;4.80;;
46729;SDS011;32476;50.002;11.854;2023-07-02T06:28:38;6.33;;;4.40;;
46729;SDS011;32476;50.002;11.854;2023-07-02T06:31:05;10.97;;;5.37;;
46729;SDS011;32476;50.002;11.854;2023-07-02T06:33:32;5.87;;;4.03;;
46729;SDS011;32476;50.002;11.854;2023-07-02T06:35:58;8.00;;;4.90;;
46729;SDS011;32476;50.002;11.854;2023-07-02T06:38:24;13.03;;;5.33;;
46729;SDS011;32476;50.002;11.854;2023-07-02T06:40:51;17.23;;;5.17;;
46729;SDS011;32476;50.002;11.854;2023-07-02T06:43:17;10.37;;;5.30;;
46729;SDS011;32476;50.002;11.854;2023-07-02T06:45:43;15.60;;;5.73;;
46729;SDS011;32476;50.002;11.854;2023-07-02T06:48:11;12.93;;;5.63;;
46729;SDS011;32476;50.002;11.854;2023-07-02T06:50:42;11.50;;;5.90;;
46729;SDS011;32476;50.002;11.854;2023-07-02T06:53:13;12.57;;;6.27;;
46729;SDS011;32476;50.002;11.854;2023-07-02T06:55:39;12.53;;;5.53;;
46729;SDS011;32476;50.002;11.854;2023-07-02T06:58:05;10.43;;;5.70;;
46729;SDS011;32476;50.002;11.854;2023-07-02T07:00:33;14.03;;;5.67;;
46729;SDS011;32476;50.002;11.854;2023-07-02T07:03:01;12.73;;;6.00;;
46729;SDS011;32476;50.002;11.854;2023-07-02T07:05:31;13.77;;;6.00;;
46729;SDS011;32476;50.002;11.854;2023-07-02T07:07:59;12.00;;;5.67;;
46729;SDS011;32476;50.002;11.854;2023-07-02T07:10:26;10.53;;;6.03;;
46729;SDS011;32476;50.002;11.854;2023-07-02T07:12:53;13.53;;;6.57;;
46729;SDS011;32476;50.002;11.854;2023-07-02T07:15:20;14.77;;;6.33;;
46729;SDS011;32476;50.002;11.854;2023-07-02T07:17:46;17.33;;;6.73;;
46729;SDS011;32476;50.002;11.854;2023-07-02T07:20:12;12.03;;;5.90;;
46729;SDS011;32476;50.002;11.854;2023-07-02T07:22:39;12.27;;;5.37;;
46729;SDS011;32476;50.002;11.854;2023-07-02T07:25:05;14.97;;;6.20;;
46729;SDS011;32476;50.002;11.854;2023-07-02T07:27:33;14.03;;;6.47;;
46729;SDS011;32476;50.002;11.854;2023-07-02T07:30:00;12.50;;;6.30;;
46729;SDS011;32476;50.002;11.854;2023-07-02T07:32:26;11.77;;;6.30;;
46729;SDS011;32476;50.002;11.854;2023-07-02T07:34:52;10.60;;;5.20;;
46729;SDS011;32476;50.002;11.854;2023-07-02T07:37:20;10.47;;;5.50;;
46729;SDS011;32476;50.002;11.854;2023-07-02T07:39:46;14.83;;;5.80;;
46729;SDS011;32476;50.002;11.854;2023-07-02T07:42:13;11.73;;;5.50;;
46729;SDS011;32476;50.002;11.854;2023-07-02T07:44:46;11.33;;;5.90;;
46729;SDS011;32476;50.002;11.854;2023-07-02T07:47:12;11.47;;;6.00;;
46729;SDS011;32476;50.002;11.854;2023-07-02T07:49:38;10.27;;;6.00;;
46729;SDS011;32476;50.002;11.854;2023-07-02T07:52:09;9.80;;;6.03;;
46729;SDS011;32476;50.002;11.854;2023-07-02T07:54:35;13.87;;;6.20;;
46729;SDS011;32476;50.002;11.854;2023-07-02T07:57:02;12.77;;;5.73;;
46729;SDS011;32476;50.002;11.854;2023-07-02T07:59:31;11.77;;;6.07;;
46729;SDS011;32476;50.002;11.854;2023-07-02T08:01:57;9.13;;;5.43;;
46729;SDS011;32476;50.002;11.854;2023-07-02T08:04:23;11.87;;;5.80;;
46729;SDS011;32476;50.002;11.854;2023-07-02T08:06:50;10.93;;;5.70;;
46729;SDS011;32476;50.002;11.854;2023-07-02T08:09:16;13.57;;;5.57;;
46729;SDS011;32476;50.002;11.854;2023-07-02T08:11:42;9.50;;;5.33;;
46729;SDS011;32476;50.002;11.854;2023-07-02T08:14:10;12.40;;;5.60;;
46729;SDS011;32476;50.002;11.854;2023-07-02T08:16:37;10.90;;;5.33;;
46729;SDS011;32476;50.002;11.854;2023-07-02T08:19:03;11.63;;;4.97;;
46729;SDS011;32476;50.002;11.854;2023-07-02T08:21:31;10.43;;;5.10;;
46729;SDS011;32476;50.002;11.854;2023-07-02T08:23:58;7.97;;;4.85;;
46729;SDS011;32476;50.002;11.854;2023-07-02T08:26:29;12.93;;;4.93;;
46729;SDS011;32476;50.002;11.854;2023-07-02T08:28:57;7.13;;;4.43;;
46729;SDS011;32476;50.002;11.854;2023-07-02T08:31:23;6.87;;;4.13;;
46729;SDS011;32476;50.002;11.854;2023-07-02T08:33:49;8.60;;;4.20;;
46729;SDS011;32476;50.002;11.854;2023-07-02T08:36:17;8.87;;;3.90;;
46729;SDS011;32476;50.002;11.854;2023-07-02T08:38:43;6.70;;;4.22;;
46729;SDS011;32476;50.002;11.854;2023-07-02T08:41:09;9.18;;;3.88;;
46729;SDS011;32476;50.002;11.854;2023-07-02T08:43:36;7.07;;;4.30;;
46729;SDS011;32476;50.002;11.854;2023-07-02T08:46:03;7.68;;;4.05;;
46729;SDS011;32476;50.002;11.854;2023-07-02T08:48:29;12.60;;;4.55;;
46729;SDS011;32476;50.002;11.854;2023-07-02T08:50:57;7.53;;;4.20;;
46729;SDS011;32476;50.002;11.854;2023-07-02T08:53:23;10.00;;;4.50;;
46729;SDS011;32476;50.002;11.854;2023-07-02T08:55:54;11.50;;;4.13;;
46729;SDS011;32476;50.002;11.854;2023-07-02T08:58:26;7.20;;;4.20;;
46729;SDS011;32476;50.002;11.854;2023-07-02T09:01:11;5.82;;;3.72;;
46729;SDS011;32476;50.002;11.854;2023-07-02T09:03:40;10.60;;;4.13;;
46729;SDS011;32476;50.002;11.854;2023-07-02T09:06:07;9.48;;;4.35;;
46729;SDS011;32476;50.002;11.854;2023-07-02T09:08:35;6.07;;;3.63;;
46729;SDS011;32476;50.002;11.854;2023-07-02T09:11:07;9.05;;;3.95;;
46729;SDS011;32476;50.002;11.854;2023-07-02T09:13:41;9.43;;;4.28;;
46729;SDS011;32476;50.002;11.854;2023-07-02T09:16:23;5.57;;;3.85;;
46729;SDS011;32476;50.002;11.854;2023-07-02T09:19:06;10.55;;;4.15;;
46729;SDS011;32476;50.002;11.854;2023-07-02T09:26:50;9.15;;;4.15;;
46729;SDS011;32476;50.002;11.854;2023-07-02T09:29:21;8.13;;;3.90;;
46729;SDS011;32476;50.002;11.854;2023-07-02T09:31:51;10.50;;;3.78;;
46729;SDS011;32476;50.002;11.854;2023-07-02T09:34:17;7.53;;;4.05;;
46729;SDS011;32476;50.002;11.854;2023-07-02T09:36:43;7.30;;;3.67;;
46729;SDS011;32476;50.002;11.854;2023-07-02T09:39:14;7.32;;;3.70;;
46729;SDS011;32476;50.002;11.854;2023-07-02T09:41:45;7.63;;;3.72;;
46729;SDS011;32476;50.002;11.854;2023-07-02T09:44:17;6.63;;;3.58;;
46729;SDS011;32476;50.002;11.854;2023-07-02T09:46:49;10.02;;;4.05;;
46729;SDS011;32476;50.002;11.854;2023-07-02T09:49:33;9.70;;;4.70;;
46729;SDS011;32476;50.002;11.854;2023-07-02T09:52:02;7.38;;;3.97;;
46729;SDS011;32476;50.002;11.854;2023-07-02T09:54:35;10.23;;;3.88;;
46729;SDS011;32476;50.002;11.854;2023-07-02T09:57:02;6.65;;;4.10;;
46729;SDS011;32476;50.002;11.854;2023-07-02T09:59:28;8.18;;;3.53;;
46729;SDS011;32476;50.002;11.854;2023-07-02T10:01:56;5.78;;;3.38;;
46729;SDS011;32476;50.002;11.854;2023-07-02T10:04:23;5.03;;;3.55;;
46729;SDS011;32476;50.002;11.854;2023-07-02T10:09:19;8.73;;;4.35;;
46729;SDS011;32476;50.002;11.854;2023-07-02T10:11:47;7.55;;;3.70;;
46729;SDS011;32476;50.002;11.854;2023-07-02T10:14:13;8.55;;;3.80;;
46729;SDS011;32476;50.002;11.854;2023-07-02T10:16:48;6.60;;;3.40;;
46729;SDS011;32476;50.002;11.854;2023-07-02T10:19:19;7.25;;;3.30;;
46729;SDS011;32476;50.002;11.854;2023-07-02T10:22:00;5.85;;;3.03;;
46729;SDS011;32476;50.002;11.854;2023-07-02T10:24:28;8.80;;;3.03;;
46729;SDS011;32476;50.002;11.854;2023-07-02T10:26:59;8.32;;;3.78;;
46729;SDS011;32476;50.002;11.854;2023-07-02T10:29:28;7.25;;;3.50;;
46729;SDS011;32476;50.002;11.854;2023-07-02T10:31:57;6.30;;;3.85;;
46729;SDS011;32476;50.002;11.854;2023-07-02T10:34:30;5.78;;;3.45;;
46729;SDS011;32476;50.002;11.854;2023-07-02T10:37:02;7.82;;;4.15;;
46729;SDS011;32476;50.002;11.854;2023-07-02T10:39:29;6.20;;;3.97;;
46729;SDS011;32476;50.002;11.854;2023-07-02T10:42:05;7.20;;;3.83;;
46729;SDS011;32476;50.002;11.854;2023-07-02T10:44:33;7.68;;;4.30;;
46729;SDS011;32476;50.002;11.854;2023-07-02T10:47:00;8.25;;;3.53;;
46729;SDS011;32476;50.002;11.854;2023-07-02T10:49:32;5.55;;;3.60;;
46729;SDS011;32476;50.002;11.854;2023-07-02T10:52:00;8.15;;;3.90;;
46729;SDS011;32476;50.002;11.854;2023-07-02T10:54:38;6.25;;;3.22;;
46729;SDS011;32476;50.002;11.854;2023-07-02T10:57:10;9.25;;;3.42;;
46729;SDS011;32476;50.002;11.854;2023-07-02T10:59:45;6.80;;;3.83;;
46729;SDS011;32476;50.002;11.854;2023-07-02T11:02:14;8.63;;;3.85;;
46729;SDS011;32476;50.002;11.854;2023-07-02T11:04:40;6.70;;;3.22;;
46729;SDS011;32476;50.002;11.854;2023-07-02T11:07:06;6.78;;;3.90;;
46729;SDS011;32476;50.002;11.854;2023-07-02T11:09:34;7.05;;;3.17;;
46729;SDS011;32476;50.002;11.854;2023-07-02T11:12:00;6.65;;;3.92;;
46729;SDS011;32476;50.002;11.854;2023-07-02T11:14:30;7.60;;;3.90;;
46729;SDS011;32476;50.002;11.854;2023-07-02T11:17:03;6.20;;;3.15;;
46729;SDS011;32476;50.002;11.854;2023-07-02T11:19:31;5.90;;;3.33;;
46729;SDS011;32476;50.002;11.854;2023-07-02T11:22:02;6.25;;;4.10;;
46729;SDS011;32476;50.002;11.854;2023-07-02T11:24:32;8.73;;;3.67;;
46729;SDS011;32476;50.002;11.854;2023-07-02T11:27:02;14.98;;;4.22;;
46729;SDS011;32476;50.002;11.854;2023-07-02T11:29:36;7.65;;;3.97;;
46729;SDS011;32476;50.002;11.854;2023-07-02T11:32:10;6.85;;;3.95;;
46729;SDS011;32476;50.002;11.854;2023-07-02T11:34:37;8.25;;;4.22;;
46729;SDS011;32476;50.002;11.854;2023-07-02T11:37:06;7.05;;;4.03;;
46729;SDS011;32476;50.002;11.854;2023-07-02T11:39:32;5.75;;;3.38;;
46729;SDS011;32476;50.002;11.854;2023-07-02T11:41:58;7.07;;;4.03;;
46729;SDS011;32476;50.002;11.854;2023-07-02T11:44:25;5.75;;;3.80;;
46729;SDS011;32476;50.002;11.854;2023-07-02T11:46:51;8.32;;;3.90;;
46729;SDS011;32476;50.002;11.854;2023-07-02T11:49:17;6.78;;;4.00;;
46729;SDS011;32476;50.002;11.854;2023-07-02T11:51:45;9.25;;;3.75;;
46729;SDS011;32476;50.002;11.854;2023-07-02T11:54:13;7.20;;;4.25;;
46729;SDS011;32476;50.002;11.854;2023-07-02T11:56:41;7.45;;;4.07;;
46729;SDS011;32476;50.002;11.854;2023-07-02T11:59:09;5.38;;;4.18;;
46729;SDS011;32476;50.002;11.854;2023-07-02T12:01:35;8.27;;;4.47;;
46729;SDS011;32476;50.002;11.854;2023-07-02T12:04:02;7.72;;;4.70;;
46729;SDS011;32476;50.002;11.854;2023-07-02T12:06:30;7.65;;;4.43;;
46729;SDS011;32476;50.002;11.854;2023-07-02T12:08:56;7.00;;;3.92;;
46729;SDS011;32476;50.002;11.854;2023-07-02T12:11:22;9.90;;;4.63;;
46729;SDS011;32476;50.002;11.854;2023-07-02T12:13:49;8.15;;;4.38;;
46729;SDS011;32476;50.002;11.854;2023-07-02T12:16:15;11.75;;;4.50;;
46729;SDS011;32476;50.002;11.854;2023-07-02T12:18:41;7.32;;;4.28;;
46729;SDS011;32476;50.002;11.854;2023-07-02T12:21:09;8.90;;;4.85;;
46729;SDS011;32476;50.002;11.854;2023-07-02T12:23:34;8.18;;;4.78;;
46729;SDS011;32476;50.002;11.854;2023-07-02T12:26:00;7.60;;;4.80;;
46729;SDS011;32476;50.002;11.854;2023-07-02T12:28:28;10.82;;;4.55;;
46729;SDS011;32476;50.002;11.854;2023-07-02T12:30:54;11.48;;;5.07;;
46729;SDS011;32476;50.002;11.854;2023-07-02T12:33:20;8.00;;;4.85;;
46729;SDS011;32476;50.002;11.854;2023-07-02T12:35:47;10.60;;;4.78;;
46729;SDS011;32476;50.002;11.854;2023-07-02T12:38:13;9.85;;;5.57;;
46729;SDS011;32476;50.002;11.854;2023-07-02T12:40:39;10.15;;;5.55;;
46729;SDS011;32476;50.002;11.854;2023-07-02T12:43:07;9.07;;;5.35;;
46729;SDS011;32476;50.002;11.854;2023-07-02T12:45:33;10.02;;;5.00;;
46729;SDS011;32476;50.002;11.854;2023-07-02T12:47:58;10.73;;;5.50;;
46729;SDS011;32476;50.002;11.854;2023-07-02T12:50:26;10.15;;;4.95;;
46729;SDS011;32476;50.002;11.854;2023-07-02T12:52:52;6.25;;;4.50;;
46729;SDS011;32476;50.002;11.854;2023-07-02T12:55:18;8.18;;;4.63;;
46729;SDS011;32476;50.002;11.854;2023-07-02T12:57:46;8.93;;;5.07;;
46729;SDS011;32476;50.002;11.854;2023-07-02T13:00:12;7.63;;;5.05;;
46729;SDS011;32476;50.002;11.854;2023-07-02T13:02:38;10.57;;;4.72;;
46729;SDS011;32476;50.002;11.854;2023-07-02T13:05:05;8.52;;;4.80;;
46729;SDS011;32476;50.002;11.854;2023-07-02T13:07:31;8.90;;;4.47;;
46729;SDS011;32476;50.002;11.854;2023-07-02T13:09:57;9.27;;;5.47;;
46729;SDS011;32476;50.002;11.854;2023-07-02T13:12:25;8.70;;;4.80;;
46729;SDS011;32476;50.002;11.854;2023-07-02T13:14:51;8.10;;;5.03;;
46729;SDS011;32476;50.002;11.854;2023-07-02T13:17:17;8.18;;;4.47;;
46729;SDS011;32476;50.002;11.854;2023-07-02T13:19:44;9.98;;;4.65;;
46729;SDS011;32476;50.002;11.854;2023-07-02T13:22:10;9.18;;;5.13;;
46729;SDS011;32476;50.002;11.854;2023-07-02T13:24:36;7.22;;;4.38;;
46729;SDS011;32476;50.002;11.854;2023-07-02T13:27:04;8.25;;;5.18;;
46729;SDS011;32476;50.002;11.854;2023-07-02T13:29:38;9.07;;;4.90;;
46729;SDS011;32476;50.002;11.854;2023-07-02T13:32:06;8.48;;;4.80;;
46729;SDS011;32476;50.002;11.854;2023-07-02T13:34:32;7.55;;;4.20;;
46729;SDS011;32476;50.002;11.854;2023-07-02T13:36:58;9.65;;;4.70;;
46729;SDS011;32476;50.002;11.854;2023-07-02T13:39:26;7.90;;;4.65;;
46729;SDS011;32476;50.002;11.854;2023-07-02T13:41:51;7.13;;;4.78;;
46729;SDS011;32476;50.002;11.854;2023-07-02T13:44:17;9.77;;;4.97;;
46729;SDS011;32476;50.002;11.854;2023-07-02T13:46:45;9.15;;;4.30;;
46729;SDS011;32476;50.002;11.854;2023-07-02T13:49:13;8.48;;;5.13;;
46729;SDS011;32476;50.002;11.854;2023-07-02T13:51:39;6.93;;;4.70;;
46729;SDS011;32476;50.002;11.854;2023-07-02T13:54:06;10.05;;;5.55;;
46729;SDS011;32476;50.002;11.854;2023-07-02T13:56:32;12.05;;;5.78;;
46729;SDS011;32476;50.002;11.854;2023-07-02T13:58:59;9.63;;;5.20;;
46729;SDS011;32476;50.002;11.854;2023-07-02T14:01:27;12.27;;;5.60;;
46729;SDS011;32476;50.002;11.854;2023-07-02T14:03:53;11.57;;;5.38;;
46729;SDS011;32476;50.002;11.854;2023-07-02T14:06:20;15.32;;;5.82;;
46729;SDS011;32476;50.002;11.854;2023-07-02T14:08:47;14.02;;;8.85;;
46729;SDS011;32476;50.002;11.854;2023-07-02T14:11:13;13.55;;;8.27;;
46729;SDS011;32476;50.002;11.854;2023-07-02T14:13:39;22.50;;;13.60;;
46729;SDS011;32476;50.002;11.854;2023-07-02T14:16:07;11.77;;;5.68;;
46729;SDS011;32476;50.002;11.854;2023-07-02T14:18:33;9.05;;;5.72;;
46729;SDS011;32476;50.002;11.854;2023-07-02T14:20:58;13.60;;;6.68;;
46729;SDS011;32476;50.002;11.854;2023-07-02T14:23:26;11.95;;;6.60;;
46729;SDS011;32476;50.002;11.854;2023-07-02T14:25:52;11.38;;;6.40;;
46729;SDS011;32476;50.002;11.854;2023-07-02T14:28:18;10.98;;;6.65;;
46729;SDS011;32476;50.002;11.854;2023-07-02T14:30:46;7.95;;;5.22;;
46729;SDS011;32476;50.002;11.854;2023-07-02T14:33:14;10.07;;;5.75;;
46729;SDS011;32476;50.002;11.854;2023-07-02T14:35:40;11.02;;;7.03;;
46729;SDS011;32476;50.002;11.854;2023-07-02T14:38:07;16.48;;;10.32;;
46729;SDS011;32476;50.002;11.854;2023-07-02T14:40:33;12.95;;;6.75;;
46729;SDS011;32476;50.002;11.854;2023-07-02T14:42:59;14.70;;;6.55;;
46729;SDS011;32476;50.002;11.854;2023-07-02T14:45:26;12.77;;;7.20;;